Terminal Aerodrome Forecast
Issued by NWS Amarillo, TX

Home | Current Version | Previous Version | Text Only | Print | Product List | Glossary On
Versions: 1 2 3 4 5 6 7 8 9 10 11 12 13 14 15 16 17 18
000
FTUS44 KAMA 302340
TAFAMA
TAF
KAMA 302340Z 0100/0124 36008KT P6SM BKN045
     FM010200 02018G28KT P6SM OVC040
     FM011400 01015G25KT P6SM -RA OVC040
     FM012000 36011KT P6SM -RA OVC020=

USA.gov is the U.S. government's official web portal to all federal, state and local government web resources and services.